Time;durP1;ratioP1;P1;durP2;ratioP2;P2;SDS_P1;SDS_P2;PMS_P1;PMS_P2;Temp;Humidity;BMP_temperature;BMP_pressure;BME280_temperature;BME280_humidity;BME280_pressure;Samples;Min_cycle;Max_cycle;Signal;HPM_P1;HPM_P2
2021/08/26 00:09:24;;;;;;;25.52;4.25;;;;;;;14.28;84.75;101021.69;10107970;28;20051;-69
2021/08/26 00:14:23;;;;;;;26.95;4.22;;;;;;;14.21;85.23;101021.44;10106537;28;20081;-68
2021/08/26 00:19:20;;;;;;;31.83;5.00;;;;;;;14.20;85.29;101019.81;10109023;28;20043;-67
2021/08/26 00:24:16;;;;;;;35.50;5.40;;;;;;;14.22;85.64;101017.53;10106066;28;20039;-67
2021/08/26 00:29:13;;;;;;;27.45;5.07;;;;;;;14.18;85.71;101011.06;10108466;28;20077;-67
2021/08/26 00:34:09;;;;;;;24.80;4.28;;;;;;;14.17;86.44;101009.47;10100157;28;20101;-68
2021/08/26 00:39:06;;;;;;;25.23;4.30;;;;;;;14.20;86.23;101008.81;10103806;28;20133;-70
2021/08/26 00:44:03;;;;;;;34.55;5.18;;;;;;;14.18;86.52;101000.06;10099692;28;20101;-70
2021/08/26 00:48:59;;;;;;;28.60;4.57;;;;;;;14.15;87.08;100995.25;10113030;28;20113;-69
2021/08/26 00:53:56;;;;;;;27.42;5.40;;;;;;;14.13;86.93;100986.53;10111873;28;20042;-70
2021/08/26 00:58:52;;;;;;;36.70;6.47;;;;;;;14.12;86.97;100991.25;10107370;28;20133;-70
2021/08/26 01:04:13;;;;;;;35.78;5.50;;;;;;;14.12;87.44;100990.44;10112261;28;20043;-70
2021/08/26 01:09:18;;;;;;;28.92;5.00;;;;;;;14.08;87.57;100991.09;10110000;28;20046;-70
2021/08/26 01:14:15;;;;;;;31.27;5.20;;;;;;;14.02;87.37;100992.44;10110729;28;20137;-67
2021/08/26 01:19:11;;;;;;;35.05;5.65;;;;;;;14.01;87.44;100984.53;10107325;28;20560;-68
2021/08/26 01:24:13;;;;;;;28.70;5.70;;;;;;;13.94;87.98;100985.06;10105606;28;20081;-67
2021/08/26 01:29:12;;;;;;;30.92;5.28;;;;;;;13.94;88.33;100987.78;10105616;28;20130;-67
2021/08/26 01:34:09;;;;;;;31.95;5.05;;;;;;;13.95;88.19;100983.09;10095088;28;20070;-66
2021/08/26 01:39:08;;;;;;;30.13;5.93;;;;;;;13.88;88.68;100976.22;10114889;28;20054;-69
2021/08/26 01:44:05;;;;;;;28.70;5.00;;;;;;;13.82;88.91;100974.00;10093359;28;20109;-68
2021/08/26 01:49:01;;;;;;;34.88;5.80;;;;;;;13.85;88.99;100976.06;10104065;28;20524;-69
2021/08/26 01:53:58;;;;;;;40.28;7.07;;;;;;;13.81;89.54;100975.94;10107646;28;20074;-67
2021/08/26 01:58:55;;;;;;;35.50;6.05;;;;;;;13.82;89.30;100976.72;10096587;28;20055;-69
2021/08/26 02:03:51;;;;;;;38.03;6.45;;;;;;;13.75;89.45;100981.97;10109269;28;20075;-67
2021/08/26 02:08:48;;;;;;;45.70;5.88;;;;;;;13.77;89.79;100974.19;10102061;28;20072;-68
2021/08/26 02:13:44;;;;;;;33.65;5.35;;;;;;;13.73;90.24;100973.25;10108024;28;20081;-68
2021/08/26 02:18:44;;;;;;;33.83;7.00;;;;;;;13.80;90.56;100968.00;10104239;28;20082;-68
2021/08/26 02:23:41;;;;;;;38.33;5.78;;;;;;;13.82;90.28;100976.72;10098664;28;20047;-67
2021/08/26 02:28:37;;;;;;;28.40;5.85;;;;;;;13.77;90.76;100966.75;10103271;28;20094;-67
2021/08/26 02:33:33;;;;;;;27.70;5.22;;;;;;;13.79;90.41;100966.41;10105888;28;20101;-69
2021/08/26 02:38:30;;;;;;;34.90;5.88;;;;;;;13.78;90.48;100967.53;10103449;28;20051;-67
2021/08/26 02:43:26;;;;;;;38.22;5.63;;;;;;;13.76;90.37;100976.13;10101493;28;20098;-67
2021/08/26 02:48:23;;;;;;;40.40;6.03;;;;;;;13.77;90.26;100969.50;10100761;28;20708;-67
2021/08/26 02:53:19;;;;;;;42.08;5.63;;;;;;;13.72;90.61;100966.94;10100583;28;20097;-69
2021/08/26 02:58:16;;;;;;;27.25;5.35;;;;;;;13.60;91.27;100964.91;10098952;28;20039;-68
2021/08/26 03:03:12;;;;;;;36.85;5.93;;;;;;;13.68;91.78;100983.28;10097724;28;20034;-68
2021/08/26 03:08:09;;;;;;;28.80;5.10;;;;;;;13.73;91.48;100992.47;10095286;28;20555;-68
2021/08/26 03:13:05;;;;;;;31.33;5.30;;;;;;;13.75;91.10;100981.97;10106570;28;20452;-67
2021/08/26 03:18:02;;;;;;;28.92;5.45;;;;;;;13.78;90.87;100964.78;10105951;28;20074;-67
2021/08/26 03:22:59;;;;;;;32.13;5.07;;;;;;;13.76;90.99;100961.56;10103814;28;20070;-67
2021/08/26 03:27:55;;;;;;;28.83;5.22;;;;;;;13.73;90.53;100954.00;10107711;28;20082;-67
2021/08/26 03:32:52;;;;;;;37.03;5.68;;;;;;;13.66;91.08;100963.56;10098734;28;20489;-66
2021/08/26 03:37:48;;;;;;;31.17;6.40;;;;;;;13.71;90.64;100965.31;10107857;28;20117;-67
2021/08/26 03:42:45;;;;;;;30.42;5.47;;;;;;;13.72;90.70;100966.16;10109740;28;20050;-68
2021/08/26 03:47:41;;;;;;;40.15;7.18;;;;;;;13.68;90.43;100966.78;10108079;28;20117;-69
2021/08/26 03:52:38;;;;;;;31.83;6.85;;;;;;;13.62;90.83;100968.13;10112298;28;20090;-69
2021/08/26 03:57:34;;;;;;;36.63;5.80;;;;;;;13.63;90.79;100969.72;10107438;28;20059;-67
2021/08/26 04:02:31;;;;;;;26.63;5.63;;;;;;;13.57;90.83;100971.06;10102924;28;20079;-67
2021/08/26 04:07:31;;;;;;;38.53;6.80;;;;;;;13.59;91.33;100957.78;10099546;28;20061;-68
2021/08/26 04:12:27;;;;;;;33.92;5.53;;;;;;;13.59;91.70;100957.00;10097313;28;20125;-70
2021/08/26 04:17:24;;;;;;;26.85;6.45;;;;;;;13.61;91.44;100969.25;10097486;28;20234;-71
2021/08/26 04:22:21;;;;;;;30.17;5.72;;;;;;;13.64;91.21;100973.28;10084018;28;20047;-70
2021/08/26 04:27:17;;;;;;;36.33;5.78;;;;;;;13.65;91.27;100961.97;10088683;28;20173;-70
2021/08/26 04:32:13;;;;;;;27.15;5.53;;;;;;;13.63;90.90;100964.25;10092005;28;20070;-71
2021/08/26 04:37:10;;;;;;;30.02;5.68;;;;;;;13.64;91.16;100960.34;10109669;28;20057;-69
2021/08/26 04:42:08;;;;;;;30.13;5.40;;;;;;;13.66;91.02;100954.53;10096849;28;20042;-68
2021/08/26 04:47:04;;;;;;;42.95;7.97;;;;;;;13.73;90.63;100959.50;10094884;28;20805;-68
2021/08/26 04:52:01;;;;;;;27.00;5.28;;;;;;;13.75;90.19;100962.72;10098842;28;20054;-67
2021/08/26 04:56:58;;;;;;;26.80;5.03;;;;;;;13.79;90.50;100955.44;10101018;28;20053;-67
2021/08/26 05:01:54;;;;;;;32.70;6.13;;;;;;;13.85;90.19;100951.31;10090649;28;20042;-68
2021/08/26 05:06:51;;;;;;;30.73;6.88;;;;;;;13.85;89.12;100959.56;10059936;28;1033978;-67
2021/08/26 05:11:48;;;;;;;23.33;4.80;;;;;;;13.80;89.16;100957.03;10095046;28;20047;-67
2021/08/26 05:16:44;;;;;;;35.30;6.35;;;;;;;13.85;89.66;100959.56;10091341;28;20051;-67
2021/08/26 05:21:41;;;;;;;25.55;4.93;;;;;;;13.83;89.37;100950.84;10090925;28;20055;-68
2021/08/26 05:26:37;;;;;;;22.88;4.53;;;;;;;13.86;89.27;100961.19;10091982;28;20506;-67
2021/08/26 05:31:34;;;;;;;24.95;4.88;;;;;;;13.88;88.94;100958.91;10095611;28;20492;-67
2021/08/26 05:36:30;;;;;;;29.60;5.25;;;;;;;13.95;88.96;100970.19;10089993;28;20135;-66
2021/08/26 05:41:27;;;;;;;33.05;5.40;;;;;;;14.06;89.19;100965.91;10093301;28;20165;-69
2021/08/26 05:46:23;;;;;;;21.13;4.60;;;;;;;14.10;88.70;100975.06;10099515;28;20070;-70
2021/08/26 05:51:20;;;;;;;22.25;4.70;;;;;;;14.17;88.24;100970.97;10091743;28;20047;-68
2021/08/26 05:56:16;;;;;;;23.40;4.90;;;;;;;14.23;88.04;100975.16;10101159;28;20043;-69
2021/08/26 06:01:13;;;;;;;25.67;5.00;;;;;;;14.22;87.06;100973.53;10106652;28;20146;-68
2021/08/26 06:06:09;;;;;;;22.83;4.15;;;;;;;14.25;86.99;100983.84;10100483;28;20506;-69
2021/08/26 06:11:06;;;;;;;24.73;5.07;;;;;;;14.26;86.91;100986.25;10109029;28;20085;-68
2021/08/26 06:16:02;;;;;;;23.40;5.80;;;;;;;14.30;86.16;100983.66;10090639;28;20051;-69
2021/08/26 06:20:59;;;;;;;16.88;4.55;;;;;;;14.30;85.94;101013.91;10092028;28;20062;-68
2021/08/26 06:25:55;;;;;;;27.90;5.32;;;;;;;14.28;86.28;101016.19;10087283;28;20047;-68
2021/08/26 06:30:52;;;;;;;20.27;4.85;;;;;;;14.21;85.05;101024.19;10085093;28;20105;-66
2021/08/26 06:35:48;;;;;;;22.00;4.40;;;;;;;14.22;85.73;101034.03;10088632;28;20533;-68
2021/08/26 06:40:45;;;;;;;26.35;5.35;;;;;;;14.14;86.63;101032.16;10089625;28;20074;-69
2021/08/26 06:45:42;;;;;;;28.60;4.70;;;;;;;14.11;86.72;101028.13;10084408;28;20086;-69
2021/08/26 06:50:38;;;;;;;26.90;5.55;;;;;;;14.01;86.93;101007.31;10086838;28;20069;-69
2021/08/26 06:55:35;;;;;;;17.77;3.60;;;;;;;14.07;88.00;100984.00;10092616;28;20074;-68
2021/08/26 07:00:31;;;;;;;20.92;5.68;;;;;;;14.22;88.16;100996.31;10087462;28;20067;-68
2021/08/26 07:05:28;;;;;;;24.40;5.60;;;;;;;14.31;87.08;101004.50;10086514;28;20728;-69
2021/08/26 07:10:25;;;;;;;16.05;3.08;;;;;;;14.37;88.29;101030.69;10088540;28;20076;-69
2021/08/26 07:15:24;;;;;;;15.90;3.85;;;;;;;14.39;86.87;101019.31;10089711;28;20067;-67
2021/08/26 07:20:22;;;;;;;16.70;3.45;;;;;;;14.46;86.77;101006.66;10092686;28;20043;-67
2021/08/26 07:25:18;;;;;;;20.95;3.45;;;;;;;14.47;86.63;101018.47;10092271;28;20082;-67
2021/08/26 07:30:15;;;;;;;19.75;3.88;;;;;;;14.47;84.69;101016.50;10090274;28;20074;-68
2021/08/26 07:35:11;;;;;;;15.07;2.97;;;;;;;14.64;86.07;101006.50;10087056;28;20429;-68
2021/08/26 07:40:10;;;;;;;14.18;3.03;;;;;;;14.72;84.17;101008.41;10089095;28;20130;-70
2021/08/26 07:45:09;;;;;;;14.25;3.83;;;;;;;14.85;83.04;101012.81;10092782;28;20130;-70
2021/08/26 07:50:07;;;;;;;12.85;3.15;;;;;;;14.86;79.99;101008.91;10102845;28;20481;-68
2021/08/26 07:55:04;;;;;;;11.68;2.42;;;;;;;15.13;80.58;100996.47;10094311;28;20054;-68
2021/08/26 08:00:01;;;;;;;12.68;2.78;;;;;;;15.21;78.95;101008.50;10083071;28;20090;-68
2021/08/26 08:04:57;;;;;;;9.55;1.85;;;;;;;15.33;78.11;101003.00;10094630;28;20493;-69
2021/08/26 08:09:54;;;;;;;14.45;2.30;;;;;;;15.36;77.25;101016.13;10084404;28;20131;-69
2021/08/26 08:14:50;;;;;;;10.82;1.80;;;;;;;15.35;75.96;101019.19;10097915;28;20067;-68
2021/08/26 08:19:47;;;;;;;15.13;1.88;;;;;;;15.48;76.84;101017.25;10086889;28;20066;-69
2021/08/26 08:24:43;;;;;;;7.53;1.98;;;;;;;15.48;74.92;101018.06;10097689;28;20070;-69
2021/08/26 08:29:40;;;;;;;10.25;2.30;;;;;;;15.42;74.75;101018.63;10088898;28;20105;-69
2021/08/26 08:34:36;;;;;;;9.50;1.88;;;;;;;15.52;74.64;101029.19;10099994;28;20501;-69
2021/08/26 08:39:33;;;;;;;12.07;1.90;;;;;;;15.68;75.19;101027.34;10094267;28;20047;-69
2021/08/26 08:44:30;;;;;;;10.35;2.20;;;;;;;15.69;73.78;101034.50;10096655;28;20568;-69
2021/08/26 08:49:26;;;;;;;13.30;1.35;;;;;;;15.67;73.39;101030.47;10096958;28;20047;-69
2021/08/26 08:54:23;;;;;;;9.90;1.77;;;;;;;15.75;73.54;101035.88;10096216;28;20043;-69
2021/08/26 08:59:20;;;;;;;7.90;2.25;;;;;;;15.71;71.58;101035.00;10094367;28;20138;-69
2021/08/26 09:04:17;;;;;;;6.15;1.50;;;;;;;15.64;71.07;101034.72;10099420;28;20565;-69
2021/08/26 09:09:14;;;;;;;5.57;0.80;;;;;;;15.58;70.66;101034.13;10091557;28;20130;-69
2021/08/26 09:14:12;;;;;;;7.63;1.40;;;;;;;15.70;70.66;101027.84;10091332;28;20115;-69
2021/08/26 09:19:29;;;;;;;7.57;1.60;;;;;;;15.95;70.77;101036.13;10089513;28;20254;-69
2021/08/26 09:24:48;;;;;;;7.55;1.50;;;;;;;16.01;68.12;101034.72;10087909;28;20114;-69
2021/08/26 09:30:19;;;;;;;9.98;1.00;;;;;;;16.28;67.48;101033.19;10089043;28;20074;-69
2021/08/26 09:35:27;;;;;;;8.20;1.00;;;;;;;16.09;67.89;101024.72;10093967;28;20050;-70
2021/08/26 09:40:30;;;;;;;5.28;1.00;;;;;;;16.54;67.10;101013.41;10097840;28;20078;-71
2021/08/26 09:45:28;;;;;;;;;;;;;;;16.84;64.55;101015.84;10096270;28;20140;-71
2021/08/26 09:50:42;;;;;;;8.68;1.25;;;;;;;17.09;63.99;101008.22;10092895;28;23066;-70
2021/08/26 09:55:47;;;;;;;6.65;1.00;;;;;;;17.18;61.94;101002.53;10093360;28;20693;-70
2021/08/26 10:00:44;;;;;;;5.28;1.08;;;;;;;16.82;63.57;101007.13;10089977;28;20074;-68
2021/08/26 10:05:44;;;;;;;6.93;2.20;;;;;;;16.56;63.19;101022.16;10095448;28;20073;-70
2021/08/26 10:10:42;;;;;;;6.68;0.70;;;;;;;16.41;64.05;101014.63;10105984;28;20130;-70
2021/08/26 10:15:39;;;;;;;11.00;1.42;;;;;;;16.33;65.42;101021.88;10085854;28;20043;-70
2021/08/26 10:20:36;;;;;;;6.53;1.27;;;;;;;16.24;64.81;101012.16;10079142;28;20066;-71
2021/08/26 10:25:43;;;;;;;7.13;1.48;;;;;;;16.06;65.16;101017.94;10077767;28;20139;-70
2021/08/26 10:30:41;;;;;;;5.07;1.25;;;;;;;16.02;64.27;101025.31;10093766;28;20663;-70
2021/08/26 10:35:50;;;;;;;4.80;0.90;;;;;;;16.73;63.01;101031.28;10083006;28;20047;-70
2021/08/26 10:40:46;;;;;;;5.50;0.57;;;;;;;18.70;54.63;101020.22;10082750;28;20066;-68
2021/08/26 10:45:51;;;;;;;7.60;0.70;;;;;;;19.11;51.75;101023.38;10088415;28;20070;-68
2021/08/26 10:51:09;;;;;;;5.45;1.08;;;;;;;18.10;53.10;101030.81;10086199;28;20532;-68
2021/08/26 10:56:26;;;;;;;5.10;0.77;;;;;;;17.54;55.27;101031.06;10086685;28;20137;-68
2021/08/26 11:01:28;;;;;;;5.13;0.50;;;;;;;17.84;55.96;101034.19;10104398;28;20571;-68
2021/08/26 11:06:27;;;;;;;4.78;1.15;;;;;;;17.55;53.73;101032.69;10104634;28;20385;-68
2021/08/26 11:11:24;;;;;;;2.95;0.40;;;;;;;17.93;48.24;101042.28;10102099;28;20051;-68
2021/08/26 11:16:23;;;;;;;2.80;0.40;;;;;;;19.38;45.30;101040.09;10099774;28;20126;-68
2021/08/26 11:21:42;;;;;;;5.65;0.68;;;;;;;20.11;44.66;101053.91;10101252;28;20505;-68
2021/08/26 11:26:48;;;;;;;4.18;0.65;;;;;;;19.62;48.64;101051.97;10093223;28;20055;-70
2021/08/26 11:32:02;;;;;;;4.50;0.40;;;;;;;19.06;53.77;101043.09;10092189;28;20079;-70
2021/08/26 11:37:20;;;;;;;6.00;0.50;;;;;;;18.17;53.99;101064.19;10088272;28;20456;-70
2021/08/26 11:42:17;;;;;;;8.38;1.00;;;;;;;17.32;52.31;101069.22;10073970;28;20138;-70
2021/08/26 11:47:27;;;;;;;6.93;0.77;;;;;;;17.30;53.27;101066.00;10081759;28;20109;-70
2021/08/26 11:52:31;;;;;;;5.20;0.50;;;;;;;17.08;52.51;101075.72;10080217;28;20055;-70
2021/08/26 11:57:28;;;;;;;4.18;0.60;;;;;;;17.10;53.58;101078.09;10087322;28;20051;-69
2021/08/26 12:02:26;;;;;;;2.72;0.43;;;;;;;17.10;57.94;101089.16;10089185;28;20065;-70
2021/08/26 12:07:28;;;;;;;5.03;0.80;;;;;;;16.93;54.76;101080.03;10089998;28;20070;-70
2021/08/26 12:12:25;;;;;;;3.72;0.50;;;;;;;16.71;53.72;101088.81;10100335;28;20051;-70
2021/08/26 12:17:23;;;;;;;3.97;0.80;;;;;;;16.78;54.28;101089.03;10096653;28;20094;-70
2021/08/26 12:22:22;;;;;;;3.60;0.55;;;;;;;16.86;55.88;101085.34;10105741;28;20417;-70
2021/08/26 12:27:19;;;;;;;5.38;0.60;;;;;;;16.80;53.85;101086.75;10102358;28;20043;-67
2021/08/26 12:32:32;;;;;;;5.05;0.80;;;;;;;16.90;53.13;101096.50;10106370;28;20062;-68
2021/08/26 12:37:28;;;;;;;8.65;0.80;;;;;;;16.97;54.06;101096.72;10101095;28;20515;-68
2021/08/26 12:42:25;;;;;;;4.28;0.70;;;;;;;17.00;53.56;101090.47;10110310;28;20089;-68
2021/08/26 12:47:30;;;;;;;2.58;0.40;;;;;;;16.79;53.56;101097.00;10107569;28;20057;-69
2021/08/26 12:52:34;;;;;;;6.57;0.82;;;;;;;16.84;54.65;101095.94;10107212;28;20078;-69
2021/08/26 12:57:33;;;;;;;5.00;0.70;;;;;;;16.76;54.84;101094.13;10113905;28;20477;-68
2021/08/26 13:02:29;;;;;;;3.80;0.80;;;;;;;16.69;54.05;101085.63;10103756;28;20121;-68
2021/08/26 13:07:26;;;;;;;4.75;0.80;;;;;;;16.68;54.37;101106.88;10110868;28;20552;-68
2021/08/26 13:12:24;;;;;;;9.23;0.75;;;;;;;16.40;55.86;101101.31;10105493;28;20043;-68
2021/08/26 13:17:21;;;;;;;4.00;0.60;;;;;;;16.40;57.09;101106.84;10102060;28;20504;-68
2021/08/26 13:22:29;;;;;;;4.03;0.63;;;;;;;16.38;55.76;101104.44;10109175;28;20126;-68
2021/08/26 13:27:26;;;;;;;3.88;0.75;;;;;;;16.27;56.25;101108.84;10103928;28;20054;-69
2021/08/26 13:32:25;;;;;;;7.57;0.85;;;;;;;16.25;56.63;101104.81;10109919;28;20070;-68
2021/08/26 13:37:21;;;;;;;5.85;0.85;;;;;;;16.24;56.21;101104.00;10106207;28;20038;-68
2021/08/26 13:42:18;;;;;;;4.07;0.70;;;;;;;16.30;57.33;101105.38;10102619;28;20490;-68
2021/08/26 13:47:14;;;;;;;5.25;0.95;;;;;;;16.33;57.00;101106.63;10109679;28;20043;-69
2021/08/26 13:52:11;;;;;;;2.95;0.55;;;;;;;16.31;56.92;101097.88;10103063;28;20054;-68
2021/08/26 13:57:07;;;;;;;6.10;1.30;;;;;;;16.39;56.05;101111.56;10102481;28;20070;-69
2021/08/26 14:02:04;;;;;;;2.33;0.73;;;;;;;16.47;56.99;101107.06;10106560;28;20050;-68
2021/08/26 14:07:01;;;;;;;6.05;0.75;;;;;;;16.54;57.21;101107.28;10090035;28;20053;-68
2021/08/26 14:11:57;;;;;;;3.35;0.70;;;;;;;16.51;56.61;101096.94;10087023;28;20648;-68
2021/08/26 14:16:53;;;;;;;2.42;0.52;;;;;;;16.66;57.51;101086.31;10088989;28;20043;-68
2021/08/26 14:21:50;;;;;;;4.30;0.63;;;;;;;16.67;56.59;101091.50;10090744;28;20450;-68
2021/08/26 14:26:46;;;;;;;2.75;0.60;;;;;;;16.58;57.79;101075.06;10089173;28;20043;-68
2021/08/26 14:31:43;;;;;;;7.07;1.35;;;;;;;16.56;57.90;101088.41;10088555;28;20085;-68
2021/08/26 14:36:39;;;;;;;3.95;0.63;;;;;;;16.29;58.26;101095.50;10088790;28;20129;-67
2021/08/26 14:41:36;;;;;;;4.40;1.40;;;;;;;16.28;58.72;101093.06;10090820;28;20050;-68
2021/08/26 14:46:32;;;;;;;5.70;1.23;;;;;;;16.61;58.50;101084.59;10093321;28;20650;-67
2021/08/26 14:51:32;;;;;;;3.85;0.70;;;;;;;16.76;59.07;101072.03;10079956;28;20055;-67
2021/08/26 14:56:28;;;;;;;4.32;1.00;;;;;;;16.66;59.30;101075.25;10092190;28;20598;-67
2021/08/26 15:01:25;;;;;;;4.80;1.00;;;;;;;16.62;58.96;101081.50;10081137;28;20077;-68
2021/08/26 15:06:22;;;;;;;4.50;1.33;;;;;;;16.49;58.80;101090.97;10086119;28;20102;-67
2021/08/26 15:11:18;;;;;;;4.50;0.70;;;;;;;16.37;59.32;101088.22;10090985;28;20133;-67
2021/08/26 15:16:15;;;;;;;7.72;0.80;;;;;;;16.39;59.57;101088.69;10095416;28;20043;-67
2021/08/26 15:21:11;;;;;;;6.22;0.90;;;;;;;16.44;60.37;101080.16;10088082;28;20129;-68
2021/08/26 15:26:08;;;;;;;7.88;1.05;;;;;;;16.51;60.89;101091.41;10090730;28;20086;-68
2021/08/26 15:31:04;;;;;;;3.97;0.73;;;;;;;16.44;60.34;101091.19;10092227;28;20133;-67
2021/08/26 15:36:01;;;;;;;4.57;1.10;;;;;;;16.41;59.95;101081.66;10093755;28;20050;-68
2021/08/26 15:40:57;;;;;;;4.75;1.25;;;;;;;16.51;60.48;101085.91;10089779;28;20192;-67
2021/08/26 15:45:54;;;;;;;6.13;1.00;;;;;;;16.56;59.86;101080.13;10082164;28;20130;-67
2021/08/26 15:50:51;;;;;;;5.60;1.33;;;;;;;16.55;60.06;101070.25;10093748;28;20505;-67
2021/08/26 15:55:50;;;;;;;10.27;1.40;;;;;;;16.48;58.96;101083.03;10092189;28;20047;-66
2021/08/26 16:00:51;;;;;;;3.00;0.93;;;;;;;16.56;60.97;101088.41;10086660;28;20043;-70
2021/08/26 16:05:50;;;;;;;3.85;0.93;;;;;;;16.63;62.19;101082.28;10090010;28;20050;-67
2021/08/26 16:10:49;;;;;;;3.30;1.10;;;;;;;16.68;60.23;101081.25;10080767;28;20482;-67
2021/08/26 16:15:45;;;;;;;5.45;1.08;;;;;;;16.55;59.02;101078.53;10086495;28;20090;-67
2021/08/26 16:20:43;;;;;;;6.78;1.30;;;;;;;16.49;59.05;101085.44;10087517;28;20175;-67
2021/08/26 16:25:40;;;;;;;3.95;1.15;;;;;;;16.41;60.35;101086.41;10082873;28;20493;-67
2021/08/26 16:30:38;;;;;;;4.47;1.00;;;;;;;16.43;61.13;101089.59;10081205;28;20059;-67
2021/08/26 16:35:35;;;;;;;4.65;1.17;;;;;;;16.44;60.92;101085.69;10082508;28;20043;-67
2021/08/26 16:40:32;;;;;;;5.13;1.40;;;;;;;16.46;60.61;101094.44;10090392;28;20074;-67
2021/08/26 16:45:29;;;;;;;5.18;1.40;;;;;;;16.43;60.53;101089.59;10083834;28;20047;-67
2021/08/26 16:50:25;;;;;;;7.57;1.30;;;;;;;16.38;61.38;101092.59;10075137;28;20106;-68
2021/08/26 16:55:22;;;;;;;6.47;1.27;;;;;;;16.31;61.51;101103.41;10085184;28;20082;-66
2021/08/26 17:00:18;;;;;;;5.18;1.40;;;;;;;16.24;61.89;101092.16;10083273;28;20055;-66
2021/08/26 17:05:16;;;;;;;7.68;1.23;;;;;;;16.18;62.61;101103.44;10088863;28;20043;-67
2021/08/26 17:10:13;;;;;;;4.15;1.10;;;;;;;16.11;63.21;101105.97;10085737;28;20456;-68
2021/08/26 17:15:11;;;;;;;8.30;1.42;;;;;;;16.06;63.30;101114.50;10085444;28;20109;-68
2021/08/26 17:20:11;;;;;;;5.68;1.30;;;;;;;15.95;62.11;101113.34;10094838;28;20492;-68
2021/08/26 17:25:09;;;;;;;9.02;2.30;;;;;;;15.97;62.81;101122.88;10095114;28;20543;-68
2021/08/26 17:30:08;;;;;;;8.02;1.67;;;;;;;15.99;63.54;101114.25;10092800;28;20054;-68
2021/08/26 17:35:06;;;;;;;6.57;1.27;;;;;;;15.93;62.69;101116.44;10088074;28;20090;-69
2021/08/26 17:40:03;;;;;;;5.63;1.42;;;;;;;15.94;62.64;101122.75;10090127;28;20054;-67
2021/08/26 17:44:59;;;;;;;7.93;1.55;;;;;;;15.95;63.47;101116.09;10092195;28;20130;-70
2021/08/26 17:49:55;;;;;;;7.90;1.40;;;;;;;15.93;62.78;101110.13;10088959;28;20074;-69
2021/08/26 17:54:52;;;;;;;9.88;1.60;;;;;;;15.95;63.08;101113.34;10089266;28;20066;-70
2021/08/26 17:59:48;;;;;;;6.20;1.40;;;;;;;15.88;64.21;101116.66;10086363;28;20050;-67
2021/08/26 18:04:45;;;;;;;4.82;1.30;;;;;;;15.91;63.79;101117.94;10084454;28;20039;-69
2021/08/26 18:09:41;;;;;;;7.55;1.73;;;;;;;15.89;64.15;101114.69;10087057;28;20071;-67
2021/08/26 18:14:38;;;;;;;10.38;1.42;;;;;;;15.76;63.05;101122.97;10086280;28;20051;-67
2021/08/26 18:19:34;;;;;;;5.15;1.42;;;;;;;15.65;63.32;101110.75;10084622;28;20133;-68
2021/08/26 18:24:31;;;;;;;5.82;1.35;;;;;;;15.57;63.51;101125.41;10092204;28;20512;-68
2021/08/26 18:29:27;;;;;;;5.80;1.58;;;;;;;15.54;63.29;101120.59;10080674;28;21824;-67
2021/08/26 18:34:24;;;;;;;4.47;1.42;;;;;;;15.49;63.38;101123.59;10085485;28;20059;-67
2021/08/26 18:39:20;;;;;;;9.93;1.52;;;;;;;15.44;64.60;101137.59;10083859;28;20133;-68
2021/08/26 18:44:17;;;;;;;4.70;1.30;;;;;;;15.40;64.56;101142.16;10087251;28;20495;-67
2021/08/26 18:49:14;;;;;;;5.28;0.90;;;;;;;15.29;64.78;101148.13;10088155;28;20142;-67
2021/08/26 18:54:10;;;;;;;10.00;1.23;;;;;;;15.30;64.52;101148.91;10079900;28;20089;-69
2021/08/26 18:59:07;;;;;;;7.35;1.20;;;;;;;15.30;64.85;101154.41;10088537;28;20618;-70
2021/08/26 19:04:03;;;;;;;3.25;1.05;;;;;;;15.21;64.54;101156.44;10080711;28;20042;-70
2021/08/26 19:09:00;;;;;;;2.40;1.02;;;;;;;15.13;64.73;101155.38;10084411;28;20134;-69
2021/08/26 19:13:56;;;;;;;6.35;1.45;;;;;;;15.14;65.05;101148.72;10090664;28;20105;-70
2021/08/26 19:18:53;;;;;;;5.25;1.55;;;;;;;15.18;65.33;101155.19;10076844;28;20486;-69
2021/08/26 19:23:49;;;;;;;6.35;1.42;;;;;;;15.11;65.97;101157.69;10080182;28;20051;-69
2021/08/26 19:28:46;;;;;;;5.85;1.27;;;;;;;15.05;66.02;101156.28;10082012;28;20110;-69
2021/08/26 19:33:42;;;;;;;6.47;1.17;;;;;;;15.08;65.86;101163.84;10089201;28;20139;-71
2021/08/26 19:38:39;;;;;;;8.32;1.20;;;;;;;15.09;66.34;101162.72;10095406;28;20130;-72
2021/08/26 19:43:35;;;;;;;6.90;2.08;;;;;;;15.03;66.75;101155.78;10083022;28;20070;-70
2021/08/26 19:48:32;;;;;;;7.85;1.30;;;;;;;14.97;66.76;101157.97;10079246;28;20057;-68
2021/08/26 19:53:28;;;;;;;7.97;1.45;;;;;;;14.90;66.99;101161.25;10085808;28;20078;-69
2021/08/26 19:58:25;;;;;;;5.65;1.63;;;;;;;14.81;67.55;101159.72;10087088;28;20055;-68
2021/08/26 20:03:22;;;;;;;4.65;1.13;;;;;;;14.73;68.09;101169.63;10089903;28;20121;-69
2021/08/26 20:08:18;;;;;;;3.50;1.02;;;;;;;14.72;68.32;101168.03;10088703;28;20050;-71
2021/08/26 20:13:15;;;;;;;7.82;1.45;;;;;;;14.63;68.41;101178.28;10085938;28;20122;-71
2021/08/26 20:18:15;;;;;;;4.68;1.08;;;;;;;14.58;68.94;101181.25;10103099;28;20170;-70
2021/08/26 20:23:12;;;;;;;3.53;1.10;;;;;;;14.55;69.25;101181.88;10100886;28;20050;-71
2021/08/26 20:28:09;;;;;;;4.32;1.00;;;;;;;14.45;69.93;101185.81;10110219;28;20094;-71
2021/08/26 20:33:05;;;;;;;4.22;1.23;;;;;;;14.47;69.83;101184.34;10106172;28;20138;-72
2021/08/26 20:38:02;;;;;;;4.35;1.25;;;;;;;14.41;70.11;101187.59;10114024;28;20102;-70
2021/08/26 20:42:58;;;;;;;5.10;1.15;;;;;;;14.38;70.53;101185.53;10103690;28;20051;-71
2021/08/26 20:47:58;;;;;;;5.97;1.15;;;;;;;14.23;70.86;101189.66;10100561;28;20047;-70
2021/08/26 20:52:55;;;;;;;4.55;1.17;;;;;;;14.31;70.98;101183.28;10104596;28;20420;-69
2021/08/26 20:57:55;;;;;;;12.82;1.38;;;;;;;14.21;71.26;101189.97;10106081;28;20145;-69
2021/08/26 21:02:52;;;;;;;9.75;1.33;;;;;;;14.21;71.25;101191.94;10098710;28;20046;-69
2021/08/26 21:07:49;;;;;;;3.97;1.20;;;;;;;14.22;71.47;101188.03;10104894;28;20118;-70
2021/08/26 21:12:45;;;;;;;2.97;1.25;;;;;;;14.15;71.44;101185.00;10107664;28;20047;-70
2021/08/26 21:17:42;;;;;;;4.30;1.30;;;;;;;14.10;71.84;101181.28;10103128;28;20106;-70
2021/08/26 21:22:39;;;;;;;7.35;1.63;;;;;;;14.00;72.42;101187.16;10105709;28;20071;-69
2021/08/26 21:27:36;;;;;;;5.70;1.23;;;;;;;13.96;72.73;101191.69;10110343;28;20081;-70
2021/08/26 21:32:33;;;;;;;6.15;1.17;;;;;;;13.95;72.82;101184.59;10101507;28;20074;-70
2021/08/26 21:37:29;;;;;;;6.55;1.45;;;;;;;13.99;73.20;101188.28;10113870;28;20089;-69
2021/08/26 21:42:26;;;;;;;5.85;1.27;;;;;;;13.98;73.04;101183.94;10110068;28;20501;-70
2021/08/26 21:47:23;;;;;;;8.93;1.98;;;;;;;13.95;73.07;101184.59;10110820;28;20054;-69
2021/08/26 21:52:19;;;;;;;6.03;1.35;;;;;;;13.94;73.50;101174.72;10103772;28;20042;-68
2021/08/26 21:57:16;;;;;;;6.47;1.60;;;;;;;13.84;73.71;101177.84;10107239;28;20126;-68
2021/08/26 22:02:12;;;;;;;6.60;1.17;;;;;;;13.81;73.97;101184.00;10111964;28;20038;-70
2021/08/26 22:07:09;;;;;;;5.00;1.58;;;;;;;13.90;73.82;101187.50;10098419;28;20047;-70
2021/08/26 22:12:05;;;;;;;4.85;1.20;;;;;;;13.86;74.00;101179.13;10103316;28;20070;-70
2021/08/26 22:17:02;;;;;;;7.20;1.13;;;;;;;13.84;74.22;101188.84;10099714;28;20062;-70
2021/08/26 22:21:59;;;;;;;6.80;1.30;;;;;;;13.84;73.89;101183.34;10111570;28;20082;-71
2021/08/26 22:26:55;;;;;;;5.55;1.23;;;;;;;13.74;74.23;101189.19;10107313;28;20039;-71
2021/08/26 22:31:52;;;;;;;3.88;1.40;;;;;;;13.73;74.19;101176.59;10109465;28;20058;-70
2021/08/26 22:36:48;;;;;;;6.60;1.50;;;;;;;13.68;74.67;101181.13;10098895;28;20094;-70
2021/08/26 22:41:45;;;;;;;5.90;1.50;;;;;;;13.67;74.94;101178.72;10105742;28;20117;-70
2021/08/26 22:46:41;;;;;;;7.28;1.75;;;;;;;13.62;75.73;101176.94;10106602;28;20118;-70
2021/08/26 22:51:38;;;;;;;4.53;1.52;;;;;;;13.62;75.79;101174.19;10103736;28;20516;-71